sensor_id;sensor_type;location;lat;lon;timestamp;P1;durP1;ratioP1;P2;durP2;ratioP2
69789;SDS011;57064;52.046;4.800;2023-05-07T00:00:10;41.90;;;21.63;;
69789;SDS011;57064;52.046;4.800;2023-05-07T00:02:36;40.83;;;22.17;;
69789;SDS011;57064;52.046;4.800;2023-05-07T00:05:03;42.53;;;23.63;;
69789;SDS011;57064;52.046;4.800;2023-05-07T00:07:29;45.95;;;24.48;;
69789;SDS011;57064;52.046;4.800;2023-05-07T00:09:55;41.60;;;24.17;;
69789;SDS011;57064;52.046;4.800;2023-05-07T00:12:21;41.20;;;22.67;;
69789;SDS011;57064;52.046;4.800;2023-05-07T00:14:47;44.45;;;23.65;;
69789;SDS011;57064;52.046;4.800;2023-05-07T00:17:13;47.95;;;24.08;;
69789;SDS011;57064;52.046;4.800;2023-05-07T00:19:39;44.65;;;23.55;;
69789;SDS011;57064;52.046;4.800;2023-05-07T00:22:06;39.67;;;21.58;;
69789;SDS011;57064;52.046;4.800;2023-05-07T00:24:33;51.75;;;24.17;;
69789;SDS011;57064;52.046;4.800;2023-05-07T00:26:59;46.92;;;23.88;;
69789;SDS011;57064;52.046;4.800;2023-05-07T00:29:25;45.40;;;24.08;;
69789;SDS011;57064;52.046;4.800;2023-05-07T00:31:51;47.65;;;24.05;;
69789;SDS011;57064;52.046;4.800;2023-05-07T00:34:19;46.80;;;23.38;;
69789;SDS011;57064;52.046;4.800;2023-05-07T00:36:45;50.97;;;24.40;;
69789;SDS011;57064;52.046;4.800;2023-05-07T00:39:11;52.90;;;27.45;;
69789;SDS011;57064;52.046;4.800;2023-05-07T00:41:38;56.90;;;27.17;;
69789;SDS011;57064;52.046;4.800;2023-05-07T00:44:04;57.10;;;28.25;;
69789;SDS011;57064;52.046;4.800;2023-05-07T00:46:30;52.55;;;25.98;;
69789;SDS011;57064;52.046;4.800;2023-05-07T00:48:57;58.72;;;27.83;;
69789;SDS011;57064;52.046;4.800;2023-05-07T00:51:25;54.85;;;28.33;;
69789;SDS011;57064;52.046;4.800;2023-05-07T00:53:54;57.55;;;28.98;;
69789;SDS011;57064;52.046;4.800;2023-05-07T00:56:21;61.65;;;29.83;;
69789;SDS011;57064;52.046;4.800;2023-05-07T00:58:47;62.72;;;31.33;;
69789;SDS011;57064;52.046;4.800;2023-05-07T01:01:14;64.38;;;30.88;;
69789;SDS011;57064;52.046;4.800;2023-05-07T01:03:43;71.38;;;34.17;;
69789;SDS011;57064;52.046;4.800;2023-05-07T01:06:09;68.38;;;33.55;;
69789;SDS011;57064;52.046;4.800;2023-05-07T01:08:37;65.20;;;33.78;;
69789;SDS011;57064;52.046;4.800;2023-05-07T01:11:06;62.70;;;32.67;;
69789;SDS011;57064;52.046;4.800;2023-05-07T01:13:33;69.05;;;34.88;;
69789;SDS011;57064;52.046;4.800;2023-05-07T01:15:59;65.00;;;32.30;;
69789;SDS011;57064;52.046;4.800;2023-05-07T01:18:25;69.45;;;35.55;;
69789;SDS011;57064;52.046;4.800;2023-05-07T01:20:52;73.75;;;34.80;;
69789;SDS011;57064;52.046;4.800;2023-05-07T01:23:19;66.55;;;33.75;;
69789;SDS011;57064;52.046;4.800;2023-05-07T01:25:54;68.78;;;32.35;;
69789;SDS011;57064;52.046;4.800;2023-05-07T01:28:20;65.82;;;34.63;;
69789;SDS011;57064;52.046;4.800;2023-05-07T01:30:49;70.70;;;36.42;;
69789;SDS011;57064;52.046;4.800;2023-05-07T01:33:19;73.45;;;36.95;;
69789;SDS011;57064;52.046;4.800;2023-05-07T01:35:50;68.88;;;36.47;;
69789;SDS011;57064;52.046;4.800;2023-05-07T01:38:18;62.83;;;33.05;;
69789;SDS011;57064;52.046;4.800;2023-05-07T01:40:46;70.93;;;34.83;;
69789;SDS011;57064;52.046;4.800;2023-05-07T01:43:13;62.55;;;34.25;;
69789;SDS011;57064;52.046;4.800;2023-05-07T01:45:39;70.28;;;37.03;;
69789;SDS011;57064;52.046;4.800;2023-05-07T01:48:06;63.80;;;35.58;;
69789;SDS011;57064;52.046;4.800;2023-05-07T01:50:35;66.18;;;35.35;;
69789;SDS011;57064;52.046;4.800;2023-05-07T01:53:02;74.32;;;36.50;;
69789;SDS011;57064;52.046;4.800;2023-05-07T01:55:28;65.15;;;35.45;;
69789;SDS011;57064;52.046;4.800;2023-05-07T01:57:54;69.43;;;34.55;;
69789;SDS011;57064;52.046;4.800;2023-05-07T02:00:20;64.03;;;34.90;;
69789;SDS011;57064;52.046;4.800;2023-05-07T02:02:46;63.33;;;33.50;;
69789;SDS011;57064;52.046;4.800;2023-05-07T02:05:12;60.00;;;32.80;;
69789;SDS011;57064;52.046;4.800;2023-05-07T02:07:39;67.90;;;34.10;;
69789;SDS011;57064;52.046;4.800;2023-05-07T02:10:05;61.67;;;35.15;;
69789;SDS011;57064;52.046;4.800;2023-05-07T02:12:32;63.40;;;33.33;;
69789;SDS011;57064;52.046;4.800;2023-05-07T02:14:58;54.78;;;31.80;;
69789;SDS011;57064;52.046;4.800;2023-05-07T02:17:24;61.67;;;34.65;;
69789;SDS011;57064;52.046;4.800;2023-05-07T02:19:50;58.55;;;32.88;;
69789;SDS011;57064;52.046;4.800;2023-05-07T02:22:17;55.25;;;31.73;;
69789;SDS011;57064;52.046;4.800;2023-05-07T02:24:43;57.10;;;31.85;;
69789;SDS011;57064;52.046;4.800;2023-05-07T02:27:09;58.85;;;33.40;;
69789;SDS011;57064;52.046;4.800;2023-05-07T02:29:35;53.95;;;31.50;;
69789;SDS011;57064;52.046;4.800;2023-05-07T02:32:01;57.13;;;31.40;;
69789;SDS011;57064;52.046;4.800;2023-05-07T02:34:27;55.30;;;31.38;;
69789;SDS011;57064;52.046;4.800;2023-05-07T02:36:54;50.60;;;30.23;;
69789;SDS011;57064;52.046;4.800;2023-05-07T02:39:20;48.95;;;29.98;;
69789;SDS011;57064;52.046;4.800;2023-05-07T02:41:46;51.75;;;29.02;;
69789;SDS011;57064;52.046;4.800;2023-05-07T02:44:12;51.28;;;29.20;;
69789;SDS011;57064;52.046;4.800;2023-05-07T02:46:38;58.45;;;30.10;;
69789;SDS011;57064;52.046;4.800;2023-05-07T02:49:04;51.78;;;30.42;;
69789;SDS011;57064;52.046;4.800;2023-05-07T02:51:31;49.88;;;29.02;;
69789;SDS011;57064;52.046;4.800;2023-05-07T02:53:57;50.47;;;28.52;;
69789;SDS011;57064;52.046;4.800;2023-05-07T02:56:25;46.95;;;27.58;;
69789;SDS011;57064;52.046;4.800;2023-05-07T02:58:51;47.65;;;27.92;;
69789;SDS011;57064;52.046;4.800;2023-05-07T03:01:17;49.42;;;28.55;;
69789;SDS011;57064;52.046;4.800;2023-05-07T03:03:43;45.85;;;26.98;;
69789;SDS011;57064;52.046;4.800;2023-05-07T03:06:09;47.08;;;27.60;;
69789;SDS011;57064;52.046;4.800;2023-05-07T03:08:35;49.80;;;26.63;;
69789;SDS011;57064;52.046;4.800;2023-05-07T03:11:02;43.58;;;27.38;;
69789;SDS011;57064;52.046;4.800;2023-05-07T03:13:28;42.85;;;26.70;;
69789;SDS011;57064;52.046;4.800;2023-05-07T03:15:54;47.38;;;26.50;;
69789;SDS011;57064;52.046;4.800;2023-05-07T03:18:20;44.10;;;25.13;;
69789;SDS011;57064;52.046;4.800;2023-05-07T03:20:47;46.05;;;26.00;;
69789;SDS011;57064;52.046;4.800;2023-05-07T03:23:13;40.03;;;24.50;;
69789;SDS011;57064;52.046;4.800;2023-05-07T03:25:39;40.70;;;25.13;;
69789;SDS011;57064;52.046;4.800;2023-05-07T03:28:06;37.55;;;24.13;;
69789;SDS011;57064;52.046;4.800;2023-05-07T03:30:32;38.78;;;24.42;;
69789;SDS011;57064;52.046;4.800;2023-05-07T03:32:58;37.60;;;24.08;;
69789;SDS011;57064;52.046;4.800;2023-05-07T03:35:24;39.72;;;22.83;;
69789;SDS011;57064;52.046;4.800;2023-05-07T03:37:51;39.63;;;24.15;;
69789;SDS011;57064;52.046;4.800;2023-05-07T03:40:17;39.53;;;23.58;;
69789;SDS011;57064;52.046;4.800;2023-05-07T03:42:43;43.22;;;24.85;;
69789;SDS011;57064;52.046;4.800;2023-05-07T03:45:09;37.15;;;24.08;;
69789;SDS011;57064;52.046;4.800;2023-05-07T03:47:35;43.88;;;23.98;;
69789;SDS011;57064;52.046;4.800;2023-05-07T03:50:01;39.67;;;23.50;;
69789;SDS011;57064;52.046;4.800;2023-05-07T03:52:27;39.80;;;23.52;;
69789;SDS011;57064;52.046;4.800;2023-05-07T03:54:53;38.88;;;22.35;;
69789;SDS011;57064;52.046;4.800;2023-05-07T03:57:20;35.75;;;23.38;;
69789;SDS011;57064;52.046;4.800;2023-05-07T03:59:46;38.75;;;23.27;;
69789;SDS011;57064;52.046;4.800;2023-05-07T04:02:12;36.20;;;23.02;;
69789;SDS011;57064;52.046;4.800;2023-05-07T04:04:38;38.05;;;24.02;;
69789;SDS011;57064;52.046;4.800;2023-05-07T04:07:04;42.13;;;24.70;;
69789;SDS011;57064;52.046;4.800;2023-05-07T04:09:30;42.47;;;25.27;;
69789;SDS011;57064;52.046;4.800;2023-05-07T04:11:56;40.38;;;24.30;;
69789;SDS011;57064;52.046;4.800;2023-05-07T04:14:22;46.38;;;25.27;;
69789;SDS011;57064;52.046;4.800;2023-05-07T04:16:48;42.15;;;24.90;;
69789;SDS011;57064;52.046;4.800;2023-05-07T04:19:14;46.88;;;25.90;;
69789;SDS011;57064;52.046;4.800;2023-05-07T04:21:40;47.28;;;25.88;;
69789;SDS011;57064;52.046;4.800;2023-05-07T04:24:06;45.03;;;25.20;;
69789;SDS011;57064;52.046;4.800;2023-05-07T04:26:32;40.25;;;25.83;;
69789;SDS011;57064;52.046;4.800;2023-05-07T04:28:59;39.75;;;23.75;;
69789;SDS011;57064;52.046;4.800;2023-05-07T04:31:25;40.50;;;23.58;;
69789;SDS011;57064;52.046;4.800;2023-05-07T04:33:51;38.15;;;23.80;;
69789;SDS011;57064;52.046;4.800;2023-05-07T04:36:17;41.10;;;23.90;;
69789;SDS011;57064;52.046;4.800;2023-05-07T04:38:43;42.05;;;24.77;;
69789;SDS011;57064;52.046;4.800;2023-05-07T04:41:12;39.17;;;24.85;;
69789;SDS011;57064;52.046;4.800;2023-05-07T04:43:38;42.17;;;24.90;;
69789;SDS011;57064;52.046;4.800;2023-05-07T04:46:05;39.30;;;23.75;;
69789;SDS011;57064;52.046;4.800;2023-05-07T04:48:31;39.92;;;24.52;;
69789;SDS011;57064;52.046;4.800;2023-05-07T04:50:57;43.33;;;24.98;;
69789;SDS011;57064;52.046;4.800;2023-05-07T04:53:23;37.70;;;23.55;;
69789;SDS011;57064;52.046;4.800;2023-05-07T04:55:54;38.53;;;24.73;;
69789;SDS011;57064;52.046;4.800;2023-05-07T04:58:21;37.28;;;23.55;;
69789;SDS011;57064;52.046;4.800;2023-05-07T05:00:48;43.95;;;25.67;;
69789;SDS011;57064;52.046;4.800;2023-05-07T05:03:14;43.45;;;24.55;;
69789;SDS011;57064;52.046;4.800;2023-05-07T05:05:40;39.05;;;24.60;;
69789;SDS011;57064;52.046;4.800;2023-05-07T05:08:06;40.33;;;24.42;;
69789;SDS011;57064;52.046;4.800;2023-05-07T05:10:32;45.88;;;26.63;;
69789;SDS011;57064;52.046;4.800;2023-05-07T05:12:58;44.55;;;26.63;;
69789;SDS011;57064;52.046;4.800;2023-05-07T05:15:25;41.97;;;25.80;;
69789;SDS011;57064;52.046;4.800;2023-05-07T05:17:51;43.88;;;26.77;;
69789;SDS011;57064;52.046;4.800;2023-05-07T05:20:17;45.17;;;26.55;;
69789;SDS011;57064;52.046;4.800;2023-05-07T05:22:43;41.95;;;26.20;;
69789;SDS011;57064;52.046;4.800;2023-05-07T05:25:09;43.05;;;26.38;;
69789;SDS011;57064;52.046;4.800;2023-05-07T05:27:35;41.72;;;25.20;;
69789;SDS011;57064;52.046;4.800;2023-05-07T05:30:02;43.92;;;26.27;;
69789;SDS011;57064;52.046;4.800;2023-05-07T05:32:28;41.83;;;26.17;;
69789;SDS011;57064;52.046;4.800;2023-05-07T05:34:54;42.25;;;25.60;;
69789;SDS011;57064;52.046;4.800;2023-05-07T05:37:20;40.15;;;25.63;;
69789;SDS011;57064;52.046;4.800;2023-05-07T05:39:46;40.70;;;23.63;;
69789;SDS011;57064;52.046;4.800;2023-05-07T05:42:13;40.53;;;25.50;;
69789;SDS011;57064;52.046;4.800;2023-05-07T05:44:39;40.30;;;24.35;;
69789;SDS011;57064;52.046;4.800;2023-05-07T05:47:05;36.95;;;23.90;;
69789;SDS011;57064;52.046;4.800;2023-05-07T05:49:31;33.85;;;23.40;;
69789;SDS011;57064;52.046;4.800;2023-05-07T05:51:57;32.92;;;20.95;;
69789;SDS011;57064;52.046;4.800;2023-05-07T05:54:23;35.67;;;22.40;;
69789;SDS011;57064;52.046;4.800;2023-05-07T05:56:49;33.42;;;23.17;;
69789;SDS011;57064;52.046;4.800;2023-05-07T05:59:15;35.42;;;22.23;;
69789;SDS011;57064;52.046;4.800;2023-05-07T06:01:41;33.35;;;23.08;;
69789;SDS011;57064;52.046;4.800;2023-05-07T06:04:07;35.08;;;23.38;;
69789;SDS011;57064;52.046;4.800;2023-05-07T06:06:33;37.22;;;22.02;;
69789;SDS011;57064;52.046;4.800;2023-05-07T06:08:59;38.17;;;24.08;;
69789;SDS011;57064;52.046;4.800;2023-05-07T06:11:26;35.33;;;23.27;;
69789;SDS011;57064;52.046;4.800;2023-05-07T06:13:52;38.35;;;24.58;;
69789;SDS011;57064;52.046;4.800;2023-05-07T06:16:18;37.05;;;23.45;;
69789;SDS011;57064;52.046;4.800;2023-05-07T06:18:44;40.35;;;24.88;;
69789;SDS011;57064;52.046;4.800;2023-05-07T06:21:11;38.20;;;24.50;;
69789;SDS011;57064;52.046;4.800;2023-05-07T06:23:38;35.35;;;22.75;;
69789;SDS011;57064;52.046;4.800;2023-05-07T06:26:05;39.10;;;24.15;;
69789;SDS011;57064;52.046;4.800;2023-05-07T06:28:32;37.60;;;23.17;;
69789;SDS011;57064;52.046;4.800;2023-05-07T06:31:13;36.75;;;25.13;;
69789;SDS011;57064;52.046;4.800;2023-05-07T06:33:41;38.45;;;25.40;;
69789;SDS011;57064;52.046;4.800;2023-05-07T06:36:08;36.35;;;23.73;;
69789;SDS011;57064;52.046;4.800;2023-05-07T06:38:34;37.13;;;24.60;;
69789;SDS011;57064;52.046;4.800;2023-05-07T06:41:00;34.45;;;22.92;;
69789;SDS011;57064;52.046;4.800;2023-05-07T06:43:26;36.33;;;24.38;;
69789;SDS011;57064;52.046;4.800;2023-05-07T06:45:52;34.92;;;23.25;;
69789;SDS011;57064;52.046;4.800;2023-05-07T06:48:18;36.28;;;22.70;;
69789;SDS011;57064;52.046;4.800;2023-05-07T06:50:44;31.50;;;21.98;;
69789;SDS011;57064;52.046;4.800;2023-05-07T06:53:10;32.85;;;22.60;;
69789;SDS011;57064;52.046;4.800;2023-05-07T06:55:36;32.42;;;22.75;;
69789;SDS011;57064;52.046;4.800;2023-05-07T06:58:03;31.58;;;21.23;;
69789;SDS011;57064;52.046;4.800;2023-05-07T07:00:29;30.83;;;21.63;;
69789;SDS011;57064;52.046;4.800;2023-05-07T07:02:55;33.35;;;22.52;;
69789;SDS011;57064;52.046;4.800;2023-05-07T07:05:21;34.40;;;21.38;;
69789;SDS011;57064;52.046;4.800;2023-05-07T07:07:47;32.88;;;22.42;;
69789;SDS011;57064;52.046;4.800;2023-05-07T07:10:21;31.17;;;21.20;;
69789;SDS011;57064;52.046;4.800;2023-05-07T07:12:48;33.10;;;22.70;;
69789;SDS011;57064;52.046;4.800;2023-05-07T07:15:15;31.92;;;22.30;;
69789;SDS011;57064;52.046;4.800;2023-05-07T07:17:41;36.00;;;23.30;;
69789;SDS011;57064;52.046;4.800;2023-05-07T07:20:07;37.15;;;24.20;;
69789;SDS011;57064;52.046;4.800;2023-05-07T07:22:34;34.35;;;23.70;;
69789;SDS011;57064;52.046;4.800;2023-05-07T07:25:00;39.65;;;25.83;;
69789;SDS011;57064;52.046;4.800;2023-05-07T07:27:26;37.15;;;25.33;;
69789;SDS011;57064;52.046;4.800;2023-05-07T07:29:52;37.55;;;25.50;;
69789;SDS011;57064;52.046;4.800;2023-05-07T07:32:18;36.42;;;24.02;;
69789;SDS011;57064;52.046;4.800;2023-05-07T07:34:44;40.83;;;25.30;;
69789;SDS011;57064;52.046;4.800;2023-05-07T07:37:11;37.95;;;24.85;;
69789;SDS011;57064;52.046;4.800;2023-05-07T07:39:37;35.05;;;24.80;;
69789;SDS011;57064;52.046;4.800;2023-05-07T07:42:03;37.95;;;24.83;;
69789;SDS011;57064;52.046;4.800;2023-05-07T07:44:29;37.60;;;25.40;;
69789;SDS011;57064;52.046;4.800;2023-05-07T07:46:55;41.50;;;24.70;;
69789;SDS011;57064;52.046;4.800;2023-05-07T07:49:21;38.38;;;24.15;;
69789;SDS011;57064;52.046;4.800;2023-05-07T07:51:47;37.25;;;24.95;;
69789;SDS011;57064;52.046;4.800;2023-05-07T07:54:13;39.30;;;25.33;;
69789;SDS011;57064;52.046;4.800;2023-05-07T07:56:39;37.65;;;25.13;;
69789;SDS011;57064;52.046;4.800;2023-05-07T07:59:05;38.97;;;25.23;;
69789;SDS011;57064;52.046;4.800;2023-05-07T08:01:31;37.45;;;25.30;;
69789;SDS011;57064;52.046;4.800;2023-05-07T08:03:57;34.60;;;24.65;;
69789;SDS011;57064;52.046;4.800;2023-05-07T08:06:24;38.28;;;25.60;;
69789;SDS011;57064;52.046;4.800;2023-05-07T08:08:53;37.28;;;23.85;;
69789;SDS011;57064;52.046;4.800;2023-05-07T08:11:19;35.28;;;24.30;;
69789;SDS011;57064;52.046;4.800;2023-05-07T08:13:46;36.72;;;22.33;;
69789;SDS011;57064;52.046;4.800;2023-05-07T08:16:12;30.67;;;22.15;;
69789;SDS011;57064;52.046;4.800;2023-05-07T08:18:38;29.55;;;20.05;;
69789;SDS011;57064;52.046;4.800;2023-05-07T08:21:05;32.47;;;21.10;;
69789;SDS011;57064;52.046;4.800;2023-05-07T08:23:31;29.08;;;20.00;;
69789;SDS011;57064;52.046;4.800;2023-05-07T08:25:59;32.33;;;20.52;;
69789;SDS011;57064;52.046;4.800;2023-05-07T08:28:25;27.95;;;19.55;;
69789;SDS011;57064;52.046;4.800;2023-05-07T08:30:51;27.48;;;18.70;;
69789;SDS011;57064;52.046;4.800;2023-05-07T08:33:17;27.83;;;18.15;;
69789;SDS011;57064;52.046;4.800;2023-05-07T08:35:43;24.83;;;16.92;;
69789;SDS011;57064;52.046;4.800;2023-05-07T08:38:09;24.05;;;15.88;;
69789;SDS011;57064;52.046;4.800;2023-05-07T08:40:39;24.10;;;16.60;;
69789;SDS011;57064;52.046;4.800;2023-05-07T08:43:06;23.67;;;15.77;;
69789;SDS011;57064;52.046;4.800;2023-05-07T08:45:33;22.58;;;15.80;;
69789;SDS011;57064;52.046;4.800;2023-05-07T08:48:01;22.55;;;15.45;;
69789;SDS011;57064;52.046;4.800;2023-05-07T08:50:30;19.67;;;15.48;;
69789;SDS011;57064;52.046;4.800;2023-05-07T08:52:56;18.48;;;12.90;;
69789;SDS011;57064;52.046;4.800;2023-05-07T08:55:23;19.02;;;13.68;;
69789;SDS011;57064;52.046;4.800;2023-05-07T08:57:49;16.42;;;12.75;;
69789;SDS011;57064;52.046;4.800;2023-05-07T09:00:18;20.88;;;13.10;;
69789;SDS011;57064;52.046;4.800;2023-05-07T09:02:44;15.70;;;12.00;;
69789;SDS011;57064;52.046;4.800;2023-05-07T09:05:10;16.38;;;11.05;;
69789;SDS011;57064;52.046;4.800;2023-05-07T09:07:36;16.00;;;11.50;;
69789;SDS011;57064;52.046;4.800;2023-05-07T09:10:02;16.50;;;12.43;;
69789;SDS011;57064;52.046;4.800;2023-05-07T09:12:29;16.55;;;12.18;;
69789;SDS011;57064;52.046;4.800;2023-05-07T09:14:55;17.20;;;12.15;;
69789;SDS011;57064;52.046;4.800;2023-05-07T09:17:21;17.08;;;12.98;;
69789;SDS011;57064;52.046;4.800;2023-05-07T09:19:47;21.42;;;12.95;;
69789;SDS011;57064;52.046;4.800;2023-05-07T09:22:13;18.90;;;12.48;;
69789;SDS011;57064;52.046;4.800;2023-05-07T09:24:40;15.77;;;11.43;;
69789;SDS011;57064;52.046;4.800;2023-05-07T09:27:06;13.00;;;9.43;;
69789;SDS011;57064;52.046;4.800;2023-05-07T09:29:33;14.23;;;9.45;;
69789;SDS011;57064;52.046;4.800;2023-05-07T09:32:03;13.45;;;9.70;;
69789;SDS011;57064;52.046;4.800;2023-05-07T09:34:33;13.20;;;9.02;;
69789;SDS011;57064;52.046;4.800;2023-05-07T09:37:03;15.88;;;9.88;;
69789;SDS011;57064;52.046;4.800;2023-05-07T09:39:52;12.55;;;8.52;;
69789;SDS011;57064;52.046;4.800;2023-05-07T09:42:16;13.68;;;9.20;;
69789;SDS011;57064;52.046;4.800;2023-05-07T09:44:49;12.60;;;9.23;;
69789;SDS011;57064;52.046;4.800;2023-05-07T09:47:18;13.40;;;8.02;;
69789;SDS011;57064;52.046;4.800;2023-05-07T09:49:46;13.32;;;8.95;;
69789;SDS011;57064;52.046;4.800;2023-05-07T09:52:13;11.75;;;8.43;;
69789;SDS011;57064;52.046;4.800;2023-05-07T09:54:40;12.40;;;7.78;;
69789;SDS011;57064;52.046;4.800;2023-05-07T09:57:09;11.80;;;8.25;;
69789;SDS011;57064;52.046;4.800;2023-05-07T09:59:37;11.68;;;7.43;;
69789;SDS011;57064;52.046;4.800;2023-05-07T10:02:04;9.88;;;7.32;;
69789;SDS011;57064;52.046;4.800;2023-05-07T10:04:31;11.57;;;8.10;;
69789;SDS011;57064;52.046;4.800;2023-05-07T10:06:58;10.63;;;7.30;;
69789;SDS011;57064;52.046;4.800;2023-05-07T10:09:25;11.00;;;8.30;;
69789;SDS011;57064;52.046;4.800;2023-05-07T10:11:52;10.50;;;6.70;;
69789;SDS011;57064;52.046;4.800;2023-05-07T10:14:19;10.57;;;6.57;;
69789;SDS011;57064;52.046;4.800;2023-05-07T10:16:46;8.68;;;5.25;;
69789;SDS011;57064;52.046;4.800;2023-05-07T10:19:13;12.50;;;4.88;;
69789;SDS011;57064;52.046;4.800;2023-05-07T10:21:44;7.10;;;4.63;;
69789;SDS011;57064;52.046;4.800;2023-05-07T10:24:22;9.35;;;4.47;;
69789;SDS011;57064;52.046;4.800;2023-05-07T10:26:52;8.30;;;4.70;;
69789;SDS011;57064;52.046;4.800;2023-05-07T10:32:57;10.00;;;5.45;;
69789;SDS011;57064;52.046;4.800;2023-05-07T10:35:16;10.70;;;5.60;;
69789;SDS011;57064;52.046;4.800;2023-05-07T10:37:56;9.70;;;5.35;;
69789;SDS011;57064;52.046;4.800;2023-05-07T10:40:23;7.78;;;4.32;;
69789;SDS011;57064;52.046;4.800;2023-05-07T10:42:59;7.78;;;5.07;;
69789;SDS011;57064;52.046;4.800;2023-05-07T10:45:26;12.50;;;6.53;;
69789;SDS011;57064;52.046;4.800;2023-05-07T10:48:10;10.35;;;6.28;;
69789;SDS011;57064;52.046;4.800;2023-05-07T10:50:40;12.30;;;6.97;;
69789;SDS011;57064;52.046;4.800;2023-05-07T10:55:49;9.25;;;7.35;;
69789;SDS011;57064;52.046;4.800;2023-05-07T10:58:27;9.98;;;7.47;;
69789;SDS011;57064;52.046;4.800;2023-05-07T11:00:57;9.80;;;7.47;;
69789;SDS011;57064;52.046;4.800;2023-05-07T11:03:24;10.65;;;6.97;;
69789;SDS011;57064;52.046;4.800;2023-05-07T11:08:57;12.15;;;7.30;;
69789;SDS011;57064;52.046;4.800;2023-05-07T11:17:06;11.10;;;6.93;;
69789;SDS011;57064;52.046;4.800;2023-05-07T11:19:49;9.02;;;6.20;;
69789;SDS011;57064;52.046;4.800;2023-05-07T11:25:04;12.50;;;7.40;;
69789;SDS011;57064;52.046;4.800;2023-05-07T11:27:31;8.65;;;7.00;;
69789;SDS011;57064;52.046;4.800;2023-05-07T11:29:58;8.18;;;6.40;;
69789;SDS011;57064;52.046;4.800;2023-05-07T11:32:26;8.98;;;5.43;;
69789;SDS011;57064;52.046;4.800;2023-05-07T11:34:57;9.73;;;5.60;;
69789;SDS011;57064;52.046;4.800;2023-05-07T11:37:25;5.82;;;5.07;;
69789;SDS011;57064;52.046;4.800;2023-05-07T11:40:04;7.22;;;4.90;;
69789;SDS011;57064;52.046;4.800;2023-05-07T11:42:37;9.68;;;4.68;;
69789;SDS011;57064;52.046;4.800;2023-05-07T11:45:05;7.72;;;4.38;;
69789;SDS011;57064;52.046;4.800;2023-05-07T11:47:32;5.60;;;3.83;;
69789;SDS011;57064;52.046;4.800;2023-05-07T11:50:06;6.38;;;4.15;;
69789;SDS011;57064;52.046;4.800;2023-05-07T11:52:32;7.15;;;4.00;;
69789;SDS011;57064;52.046;4.800;2023-05-07T11:54:59;10.82;;;5.05;;
69789;SDS011;57064;52.046;4.800;2023-05-07T11:57:26;7.30;;;4.47;;
69789;SDS011;57064;52.046;4.800;2023-05-07T11:59:54;6.93;;;4.97;;
69789;SDS011;57064;52.046;4.800;2023-05-07T12:02:20;9.52;;;5.22;;
69789;SDS011;57064;52.046;4.800;2023-05-07T12:04:47;8.65;;;4.95;;
69789;SDS011;57064;52.046;4.800;2023-05-07T12:07:13;7.63;;;4.85;;
69789;SDS011;57064;52.046;4.800;2023-05-07T12:09:41;7.65;;;5.68;;
69789;SDS011;57064;52.046;4.800;2023-05-07T12:12:07;8.32;;;5.45;;
69789;SDS011;57064;52.046;4.800;2023-05-07T12:14:37;8.55;;;6.15;;
69789;SDS011;57064;52.046;4.800;2023-05-07T12:17:07;10.82;;;6.68;;
69789;SDS011;57064;52.046;4.800;2023-05-07T12:19:35;11.10;;;6.97;;
69789;SDS011;57064;52.046;4.800;2023-05-07T12:22:02;8.90;;;6.63;;
69789;SDS011;57064;52.046;4.800;2023-05-07T12:24:39;10.13;;;6.97;;
69789;SDS011;57064;52.046;4.800;2023-05-07T12:27:10;10.80;;;8.18;;
69789;SDS011;57064;52.046;4.800;2023-05-07T12:29:36;11.55;;;8.52;;
69789;SDS011;57064;52.046;4.800;2023-05-07T12:32:05;10.82;;;8.25;;
69789;SDS011;57064;52.046;4.800;2023-05-07T12:34:32;12.13;;;8.90;;
69789;SDS011;57064;52.046;4.800;2023-05-07T12:37:01;12.73;;;9.00;;
69789;SDS011;57064;52.046;4.800;2023-05-07T12:39:28;12.85;;;10.48;;
69789;SDS011;57064;52.046;4.800;2023-05-07T12:41:55;12.93;;;10.80;;
69789;SDS011;57064;52.046;4.800;2023-05-07T12:44:23;14.07;;;9.98;;
69789;SDS011;57064;52.046;4.800;2023-05-07T12:46:50;14.25;;;10.93;;
69789;SDS011;57064;52.046;4.800;2023-05-07T12:49:17;12.90;;;10.13;;
69789;SDS011;57064;52.046;4.800;2023-05-07T12:51:43;13.90;;;10.32;;
69789;SDS011;57064;52.046;4.800;2023-05-07T12:54:11;12.70;;;10.48;;
69789;SDS011;57064;52.046;4.800;2023-05-07T12:56:37;12.48;;;10.23;;
69789;SDS011;57064;52.046;4.800;2023-05-07T12:59:04;12.63;;;10.32;;
69789;SDS011;57064;52.046;4.800;2023-05-07T13:01:30;14.57;;;10.48;;
69789;SDS011;57064;52.046;4.800;2023-05-07T13:04:08;15.23;;;11.02;;
69789;SDS011;57064;52.046;4.800;2023-05-07T13:06:34;12.77;;;10.32;;
69789;SDS011;57064;52.046;4.800;2023-05-07T13:09:00;13.45;;;10.50;;
69789;SDS011;57064;52.046;4.800;2023-05-07T13:11:26;11.82;;;9.80;;
69789;SDS011;57064;52.046;4.800;2023-05-07T13:13:52;14.50;;;10.18;;
69789;SDS011;57064;52.046;4.800;2023-05-07T13:16:18;14.20;;;9.90;;
69789;SDS011;57064;52.046;4.800;2023-05-07T13:18:44;14.68;;;10.48;;
69789;SDS011;57064;52.046;4.800;2023-05-07T13:21:10;13.18;;;10.02;;
69789;SDS011;57064;52.046;4.800;2023-05-07T13:23:38;13.38;;;9.55;;
69789;SDS011;57064;52.046;4.800;2023-05-07T13:26:04;12.88;;;9.43;;
69789;SDS011;57064;52.046;4.800;2023-05-07T13:28:30;14.88;;;10.00;;
69789;SDS011;57064;52.046;4.800;2023-05-07T13:30:56;13.23;;;10.48;;
69789;SDS011;57064;52.046;4.800;2023-05-07T13:33:22;14.00;;;9.73;;
69789;SDS011;57064;52.046;4.800;2023-05-07T13:35:49;12.65;;;9.60;;
69789;SDS011;57064;52.046;4.800;2023-05-07T13:38:15;14.20;;;10.02;;
69789;SDS011;57064;52.046;4.800;2023-05-07T13:40:41;11.43;;;9.00;;
69789;SDS011;57064;52.046;4.800;2023-05-07T13:43:07;9.93;;;7.53;;
69789;SDS011;57064;52.046;4.800;2023-05-07T13:45:33;4.78;;;4.00;;
69789;SDS011;57064;52.046;4.800;2023-05-07T13:47:59;6.75;;;4.43;;
69789;SDS011;57064;52.046;4.800;2023-05-07T13:50:26;10.13;;;5.32;;
69789;SDS011;57064;52.046;4.800;2023-05-07T13:52:52;12.05;;;6.15;;
69789;SDS011;57064;52.046;4.800;2023-05-07T13:55:18;9.10;;;3.63;;
69789;SDS011;57064;52.046;4.800;2023-05-07T13:57:45;7.40;;;4.70;;
69789;SDS011;57064;52.046;4.800;2023-05-07T14:00:12;8.02;;;5.28;;
69789;SDS011;57064;52.046;4.800;2023-05-07T14:02:39;9.52;;;5.10;;
69789;SDS011;57064;52.046;4.800;2023-05-07T14:05:05;10.52;;;5.90;;
69789;SDS011;57064;52.046;4.800;2023-05-07T14:07:32;8.65;;;5.78;;
69789;SDS011;57064;52.046;4.800;2023-05-07T14:09:58;16.05;;;8.82;;
69789;SDS011;57064;52.046;4.800;2023-05-07T14:12:24;17.27;;;10.15;;
69789;SDS011;57064;52.046;4.800;2023-05-07T14:14:51;13.48;;;8.90;;
69789;SDS011;57064;52.046;4.800;2023-05-07T14:17:17;7.82;;;6.50;;
69789;SDS011;57064;52.046;4.800;2023-05-07T14:19:44;5.93;;;4.80;;
69789;SDS011;57064;52.046;4.800;2023-05-07T14:22:10;8.80;;;4.95;;
69789;SDS011;57064;52.046;4.800;2023-05-07T14:24:37;7.40;;;6.18;;
69789;SDS011;57064;52.046;4.800;2023-05-07T14:27:04;10.68;;;6.40;;
69789;SDS011;57064;52.046;4.800;2023-05-07T14:29:30;12.60;;;7.70;;
69789;SDS011;57064;52.046;4.800;2023-05-07T14:31:56;12.50;;;8.23;;
69789;SDS011;57064;52.046;4.800;2023-05-07T14:34:22;14.45;;;10.30;;
69789;SDS011;57064;52.046;4.800;2023-05-07T14:36:48;18.17;;;11.50;;
69789;SDS011;57064;52.046;4.800;2023-05-07T14:39:14;15.48;;;9.63;;
69789;SDS011;57064;52.046;4.800;2023-05-07T14:41:40;13.32;;;8.38;;